createdAt,value
2019-01-30T00:01:20.835Z,8.50
2019-01-30T00:03:49.463Z,9.75
2019-01-30T00:06:18.151Z,8.75
2019-01-30T00:08:46.831Z,8.65
2019-01-30T00:11:16.269Z,9.73
2019-01-30T00:13:44.894Z,8.20
2019-01-30T00:16:13.504Z,9.00
2019-01-30T00:18:42.191Z,9.85
2019-01-30T00:21:11.131Z,9.25
2019-01-30T00:23:39.975Z,8.75
2019-01-30T00:26:08.683Z,8.13
2019-01-30T00:28:37.335Z,8.05
2019-01-30T00:31:06.031Z,8.85
2019-01-30T00:33:34.713Z,7.80
2019-01-30T00:36:03.320Z,8.45
2019-01-30T00:38:31.952Z,8.00
2019-01-30T00:41:00.554Z,7.92
2019-01-30T00:43:29.182Z,7.25
2019-01-30T00:45:57.807Z,6.87
2019-01-30T00:48:26.468Z,6.85
2019-01-30T00:50:55.196Z,7.40
2019-01-30T00:53:23.836Z,7.08
2019-01-30T00:55:52.503Z,7.05
2019-01-30T00:58:21.204Z,7.28
2019-01-30T01:00:49.888Z,7.03
2019-01-30T01:03:18.515Z,5.90
2019-01-30T01:05:47.163Z,6.40
2019-01-30T01:08:15.784Z,6.50
2019-01-30T01:10:44.474Z,7.65
2019-01-30T01:13:14.675Z,6.80
2019-01-30T01:15:43.307Z,6.12
2019-01-30T01:18:11.910Z,7.47
2019-01-30T01:20:40.533Z,7.12
2019-01-30T01:23:09.300Z,6.75
2019-01-30T01:25:37.979Z,7.10
2019-01-30T01:28:06.691Z,7.08
2019-01-30T01:30:35.386Z,6.42
2019-01-30T01:33:04.257Z,6.53
2019-01-30T01:35:32.955Z,6.58
2019-01-30T01:38:01.631Z,7.50
2019-01-30T01:40:30.239Z,6.92
2019-01-30T01:42:58.901Z,6.40
2019-01-30T01:45:27.570Z,6.92
2019-01-30T01:47:56.199Z,6.72
2019-01-30T01:50:24.803Z,6.85
2019-01-30T01:52:53.412Z,6.78
2019-01-30T01:55:22.478Z,7.10
2019-01-30T01:57:51.087Z,7.12
2019-01-30T02:00:21.007Z,5.78
2019-01-30T02:02:49.791Z,7.08
2019-01-30T02:05:20.291Z,6.97
2019-01-30T02:07:49.155Z,6.00
2019-01-30T02:10:19.429Z,6.25
2019-01-30T02:12:48.181Z,6.60
2019-01-30T02:15:18.811Z,6.40
2019-01-30T02:17:47.499Z,5.83
2019-01-30T02:20:18.576Z,6.62
2019-01-30T02:22:47.165Z,6.40
2019-01-30T02:25:15.790Z,5.47
2019-01-30T02:27:44.477Z,5.65
2019-01-30T02:30:18.563Z,6.00
2019-01-30T02:32:47.235Z,7.20
2019-01-30T02:35:15.935Z,5.85
2019-01-30T02:37:44.611Z,7.10
2019-01-30T02:40:15.355Z,7.70
2019-01-30T02:42:43.975Z,7.75
2019-01-30T02:45:14.624Z,8.40
2019-01-30T02:47:43.307Z,9.05
2019-01-30T02:50:13.982Z,9.13
2019-01-30T02:52:43.269Z,9.73
2019-01-30T02:55:12.986Z,8.75
2019-01-30T02:57:41.789Z,8.63
2019-01-30T03:00:17.231Z,9.80
2019-01-30T03:02:45.911Z,9.10
2019-01-30T03:05:15.622Z,9.90
2019-01-30T03:07:44.222Z,9.93
2019-01-30T03:10:15.387Z,9.88
2019-01-30T03:12:44.159Z,9.65
2019-01-30T03:15:13.258Z,10.35
2019-01-30T03:17:41.957Z,10.65
2019-01-30T03:20:15.862Z,10.20
2019-01-30T03:22:44.467Z,10.82
2019-01-30T03:25:13.889Z,12.15
2019-01-30T03:27:42.500Z,11.80
2019-01-30T03:30:14.398Z,11.05
2019-01-30T03:32:43.271Z,11.03
2019-01-30T03:35:11.995Z,12.50
2019-01-30T03:37:40.631Z,12.45
2019-01-30T03:40:11.250Z,11.10
2019-01-30T03:42:39.879Z,10.88
2019-01-30T03:45:09.306Z,11.25
2019-01-30T03:47:37.927Z,11.20
2019-01-30T03:50:07.602Z,12.33
2019-01-30T03:52:36.359Z,10.80
2019-01-30T03:55:05.386Z,12.25
2019-01-30T03:57:34.017Z,11.25
2019-01-30T04:00:02.705Z,11.63
2019-01-30T04:02:31.300Z,12.20
2019-01-30T04:05:00.057Z,11.83
2019-01-30T04:07:29.055Z,11.63
2019-01-30T04:09:57.844Z,12.07
2019-01-30T04:12:26.580Z,11.55
2019-01-30T04:14:55.314Z,11.75
2019-01-30T04:17:24.076Z,11.75
2019-01-30T04:19:52.687Z,10.43
2019-01-30T04:22:21.299Z,11.95
2019-01-30T04:24:49.958Z,11.60
2019-01-30T04:27:18.588Z,13.48
2019-01-30T04:29:47.234Z,11.80
2019-01-30T04:32:16.068Z,11.88
2019-01-30T04:34:44.704Z,12.40
2019-01-30T04:37:13.322Z,12.37
2019-01-30T04:39:41.967Z,11.83
2019-01-30T04:42:10.692Z,12.70
2019-01-30T04:44:39.304Z,11.68
2019-01-30T04:47:07.924Z,12.47
2019-01-30T04:49:36.596Z,12.53
2019-01-30T04:52:05.383Z,11.20
2019-01-30T04:54:34.004Z,12.80
2019-01-30T04:57:02.627Z,11.65
2019-01-30T04:59:31.254Z,11.55
2019-01-30T05:01:59.885Z,13.68
2019-01-30T05:04:28.504Z,11.60
2019-01-30T05:06:57.235Z,13.13
2019-01-30T05:09:25.887Z,12.35
2019-01-30T05:11:54.491Z,12.33
2019-01-30T05:14:23.171Z,12.47
2019-01-30T05:16:51.788Z,15.38
2019-01-30T05:19:20.636Z,12.95
2019-01-30T05:21:49.344Z,11.93
2019-01-30T05:24:17.978Z,12.10
2019-01-30T05:26:46.602Z,12.98
2019-01-30T05:29:15.216Z,11.63
2019-01-30T05:31:43.842Z,12.47
2019-01-30T05:34:12.539Z,12.20
2019-01-30T05:36:41.157Z,12.55
2019-01-30T05:39:09.922Z,12.05
2019-01-30T05:41:38.560Z,13.22
2019-01-30T05:44:07.251Z,12.25
2019-01-30T05:46:36.095Z,12.28
2019-01-30T05:49:04.779Z,12.40
2019-01-30T05:51:33.413Z,12.63
2019-01-30T05:54:02.697Z,12.82
2019-01-30T05:56:31.355Z,13.03
2019-01-30T05:58:59.975Z,12.88
2019-01-30T06:01:28.674Z,14.10
2019-01-30T06:03:57.303Z,14.63
2019-01-30T06:06:25.967Z,14.68
2019-01-30T06:08:54.587Z,15.10
2019-01-30T06:11:23.207Z,15.68
2019-01-30T06:13:51.822Z,15.85
2019-01-30T06:16:20.466Z,15.48
2019-01-30T06:18:49.150Z,17.48
2019-01-30T06:21:18.073Z,15.40
2019-01-30T06:23:46.683Z,16.57
2019-01-30T06:26:15.329Z,16.90
2019-01-30T06:28:43.941Z,16.52
2019-01-30T06:31:12.579Z,18.25
2019-01-30T06:33:41.197Z,17.95
2019-01-30T06:36:09.832Z,16.12
2019-01-30T06:38:38.547Z,19.48
2019-01-30T06:41:07.178Z,18.27
2019-01-30T06:43:36.166Z,19.75
2019-01-30T06:46:05.175Z,17.10
2019-01-30T06:48:33.788Z,20.57
2019-01-30T06:51:02.469Z,18.90
2019-01-30T06:53:31.199Z,23.32
2019-01-30T06:55:59.852Z,21.15
2019-01-30T06:58:28.498Z,19.32
2019-01-30T07:00:57.149Z,19.90
2019-01-30T07:03:25.807Z,21.05
2019-01-30T07:05:54.627Z,21.48
2019-01-30T07:08:23.286Z,20.55
2019-01-30T07:10:51.907Z,20.82
2019-01-30T07:13:20.547Z,20.12
2019-01-30T07:15:49.275Z,22.22
2019-01-30T07:18:17.916Z,19.80
2019-01-30T07:20:46.791Z,20.30
2019-01-30T07:23:15.495Z,20.00
2019-01-30T07:25:44.449Z,19.98
2019-01-30T07:28:13.118Z,21.00
2019-01-30T07:30:41.983Z,19.05
2019-01-30T07:33:10.706Z,20.25
2019-01-30T07:35:39.443Z,19.82
2019-01-30T07:38:08.267Z,19.07
2019-01-30T07:40:36.916Z,20.05
2019-01-30T07:43:05.701Z,20.52
2019-01-30T07:45:34.507Z,19.92
2019-01-30T07:48:03.177Z,18.50
2019-01-30T07:50:31.824Z,17.90
2019-01-30T07:53:00.485Z,19.30
2019-01-30T07:55:29.231Z,20.05
2019-01-30T07:57:57.972Z,19.12
2019-01-30T08:00:29.119Z,17.70
2019-01-30T08:02:57.899Z,16.52
2019-01-30T08:05:26.613Z,17.80
2019-01-30T08:07:55.655Z,16.45
2019-01-30T08:10:24.267Z,20.32
2019-01-30T08:12:53.009Z,18.17
2019-01-30T08:15:22.001Z,15.43
2019-01-30T08:17:50.831Z,18.55
2019-01-30T08:20:20.510Z,19.00
2019-01-30T08:22:49.421Z,18.32
2019-01-30T08:25:19.966Z,19.32
2019-01-30T08:27:49.569Z,19.35
2019-01-30T08:30:28.817Z,16.17
2019-01-30T08:33:04.860Z,18.98
2019-01-30T08:35:30.322Z,19.32
2019-01-30T08:37:59.080Z,17.20
2019-01-30T08:40:27.765Z,17.32
2019-01-30T08:42:56.395Z,17.80
2019-01-30T08:45:26.918Z,12.47
2019-01-30T08:47:55.540Z,18.17
2019-01-30T08:50:24.562Z,16.77
2019-01-30T08:52:54.334Z,15.50
2019-01-30T08:55:23.098Z,17.65
2019-01-30T08:57:51.913Z,14.45
2019-01-30T09:00:21.790Z,16.50
2019-01-30T09:02:50.599Z,18.32
2019-01-30T09:05:19.279Z,16.85
2019-01-30T09:07:48.142Z,16.40
2019-01-30T09:10:18.696Z,16.00
2019-01-30T09:12:47.364Z,15.72
2019-01-30T09:15:17.694Z,15.63
2019-01-30T09:17:46.689Z,16.50
2019-01-30T09:20:17.272Z,14.85
2019-01-30T09:22:45.988Z,16.27
2019-01-30T09:25:16.624Z,16.87
2019-01-30T09:27:45.279Z,16.77
2019-01-30T09:30:18.998Z,16.87
2019-01-30T09:32:47.850Z,14.83
2019-01-30T09:35:16.475Z,16.60
2019-01-30T09:37:45.134Z,15.55
2019-01-30T09:40:14.365Z,16.82
2019-01-30T09:42:45.566Z,15.55
2019-01-30T09:45:14.727Z,16.40
2019-01-30T09:47:43.414Z,15.53
2019-01-30T09:50:15.543Z,16.80
2019-01-30T09:52:44.215Z,15.20
2019-01-30T09:55:13.607Z,13.38
2019-01-30T09:57:42.319Z,14.15
2019-01-30T10:00:19.643Z,12.78
2019-01-30T10:02:48.418Z,13.53
2019-01-30T10:05:17.290Z,12.23
2019-01-30T10:07:45.936Z,14.00
2019-01-30T10:10:17.666Z,13.85
2019-01-30T10:12:46.307Z,14.73
2019-01-30T10:15:16.571Z,13.10
2019-01-30T10:17:45.227Z,10.15
2019-01-30T10:20:16.428Z,13.48
2019-01-30T10:22:45.073Z,13.90
2019-01-30T10:25:13.849Z,13.28
2019-01-30T10:27:42.495Z,14.53
2019-01-30T10:30:14.131Z,13.53
2019-01-30T10:32:42.763Z,13.80
2019-01-30T10:35:11.514Z,13.25
2019-01-30T10:37:40.263Z,14.35
2019-01-30T10:40:11.713Z,12.78
2019-01-30T10:42:40.413Z,12.82
2019-01-30T10:45:09.518Z,12.20
2019-01-30T10:47:38.324Z,13.32
2019-01-30T10:50:08.326Z,11.57
2019-01-30T10:52:37.006Z,13.48
2019-01-30T10:55:06.979Z,10.53
2019-01-30T10:57:35.713Z,10.80
2019-01-30T11:00:08.751Z,11.55
2019-01-30T11:02:37.448Z,10.32
2019-01-30T11:05:06.750Z,12.15
2019-01-30T11:07:35.784Z,12.90
2019-01-30T11:10:05.785Z,11.93
2019-01-30T11:12:34.447Z,13.72
2019-01-30T11:15:03.352Z,12.35
2019-01-30T11:17:32.015Z,12.55
2019-01-30T11:20:00.791Z,11.68
2019-01-30T11:22:29.393Z,9.33
2019-01-30T11:24:58.049Z,12.45
2019-01-30T11:27:26.705Z,13.25
2019-01-30T11:29:55.314Z,13.15
2019-01-30T11:32:23.948Z,12.58
2019-01-30T11:34:52.707Z,11.73
2019-01-30T11:37:21.379Z,11.80
2019-01-30T11:39:50.120Z,12.82
2019-01-30T11:42:18.779Z,10.95
2019-01-30T11:44:47.491Z,11.97
2019-01-30T11:47:16.145Z,10.72
2019-01-30T11:49:45.035Z,11.18
2019-01-30T11:52:13.835Z,12.25
2019-01-30T11:54:42.591Z,10.70
2019-01-30T11:57:11.246Z,9.95
2019-01-30T11:59:39.949Z,11.68
2019-01-30T12:02:08.678Z,15.80
2019-01-30T12:04:37.327Z,9.70
2019-01-30T12:07:06.100Z,12.13
2019-01-30T12:09:34.711Z,12.00
2019-01-30T12:12:03.367Z,12.10
2019-01-30T12:14:31.979Z,10.63
2019-01-30T12:17:00.643Z,13.62
2019-01-30T12:19:29.329Z,12.98
2019-01-30T12:21:57.964Z,11.20
2019-01-30T12:24:26.672Z,13.10
2019-01-30T12:26:55.288Z,11.97
2019-01-30T12:29:23.932Z,11.68
2019-01-30T12:31:52.621Z,13.28
2019-01-30T12:34:28.011Z,12.30
2019-01-30T12:36:51.880Z,11.15
2019-01-30T12:39:20.496Z,9.68
2019-01-30T12:41:49.160Z,11.20
2019-01-30T12:44:17.827Z,10.55
2019-01-30T12:46:46.493Z,11.15
2019-01-30T12:49:15.084Z,12.55
2019-01-30T12:51:43.681Z,11.55
2019-01-30T12:54:12.422Z,10.23
2019-01-30T12:56:41.004Z,11.73
2019-01-30T12:59:09.723Z,10.35
2019-01-30T13:01:38.422Z,12.28
2019-01-30T13:04:07.154Z,12.07
2019-01-30T13:06:35.771Z,13.62
2019-01-30T13:09:07.768Z,9.68
2019-01-30T13:11:36.387Z,9.53
2019-01-30T13:14:05.121Z,11.90
2019-01-30T13:16:33.837Z,11.93
2019-01-30T13:19:02.510Z,12.80
2019-01-30T13:21:31.210Z,13.60
2019-01-30T13:23:59.893Z,10.68
2019-01-30T13:26:28.616Z,11.70
2019-01-30T13:28:57.311Z,12.35
2019-01-30T13:31:25.911Z,13.18
2019-01-30T13:33:54.566Z,13.90
2019-01-30T13:36:23.233Z,10.48
2019-01-30T13:38:52.188Z,10.43
2019-01-30T13:41:20.828Z,11.43
2019-01-30T13:43:49.699Z,12.35
2019-01-30T13:46:18.329Z,11.38
2019-01-30T13:48:46.975Z,11.65
2019-01-30T13:51:15.590Z,9.70
2019-01-30T13:53:44.285Z,11.10
2019-01-30T13:56:12.970Z,10.68
2019-01-30T13:58:42.756Z,11.97
2019-01-30T14:01:17.716Z,10.00
2019-01-30T14:03:41.891Z,10.60
2019-01-30T14:06:10.609Z,11.57
2019-01-30T14:08:39.254Z,11.28
2019-01-30T14:11:07.891Z,12.03
2019-01-30T14:13:36.571Z,11.20
2019-01-30T14:16:05.418Z,11.22
2019-01-30T14:18:34.089Z,12.95
2019-01-30T14:21:02.779Z,12.00
2019-01-30T14:23:31.477Z,10.60
2019-01-30T14:26:00.311Z,11.15
2019-01-30T14:28:29.030Z,11.95
2019-01-30T14:30:57.722Z,11.18
2019-01-30T14:33:26.370Z,11.48
2019-01-30T14:35:54.979Z,10.32
2019-01-30T14:38:23.877Z,10.58
2019-01-30T14:40:52.472Z,11.45
2019-01-30T14:43:21.104Z,13.98
2019-01-30T14:45:49.776Z,11.10
2019-01-30T14:48:21.702Z,12.07
2019-01-30T14:50:50.434Z,11.35
2019-01-30T14:53:19.127Z,11.68
2019-01-30T14:55:47.885Z,11.90
2019-01-30T14:58:16.706Z,13.40
2019-01-30T15:00:45.380Z,12.25
2019-01-30T15:03:14.305Z,10.55
2019-01-30T15:05:42.995Z,11.22
2019-01-30T15:08:11.738Z,13.00
2019-01-30T15:10:40.348Z,11.15
2019-01-30T15:13:09.119Z,11.70
2019-01-30T15:15:37.773Z,12.45
2019-01-30T15:18:07.370Z,11.30
2019-01-30T15:20:36.749Z,11.35
2019-01-30T15:23:06.272Z,11.60
2019-01-30T15:25:35.040Z,11.28
2019-01-30T15:28:03.891Z,13.08
2019-01-30T15:30:34.862Z,12.10
2019-01-30T15:33:03.946Z,10.63
2019-01-30T15:35:33.942Z,11.75
2019-01-30T15:38:04.753Z,12.35
2019-01-30T15:40:33.522Z,10.68
2019-01-30T15:43:02.298Z,11.65
2019-01-30T15:45:31.064Z,12.93
2019-01-30T15:47:59.744Z,9.75
2019-01-30T15:50:29.974Z,11.85
2019-01-30T15:52:59.835Z,12.03
2019-01-30T15:55:28.687Z,11.95
2019-01-30T15:57:59.819Z,10.65
2019-01-30T16:00:31.411Z,11.68
2019-01-30T16:03:00.249Z,11.20
2019-01-30T16:05:29.036Z,12.55
2019-01-30T16:07:57.784Z,12.47
2019-01-30T16:10:26.681Z,12.95
2019-01-30T16:12:55.370Z,12.13
2019-01-30T16:15:29.996Z,10.55
2019-01-30T16:17:58.646Z,10.78
2019-01-30T16:20:27.380Z,12.68
2019-01-30T16:22:55.983Z,12.75
2019-01-30T16:25:24.647Z,11.55
2019-01-30T16:27:53.435Z,12.10
2019-01-30T16:30:22.774Z,11.45
2019-01-30T16:32:51.455Z,13.40
2019-01-30T16:35:23.056Z,12.33
2019-01-30T16:37:51.762Z,13.55
2019-01-30T16:40:20.509Z,12.65
2019-01-30T16:42:49.108Z,11.05
2019-01-30T16:45:19.415Z,11.90
2019-01-30T16:47:48.068Z,11.22
2019-01-30T16:50:17.262Z,11.70
2019-01-30T16:52:46.040Z,12.25
2019-01-30T16:55:15.716Z,12.58
2019-01-30T16:57:44.503Z,11.63
2019-01-30T17:00:22.139Z,12.75
2019-01-30T17:02:50.806Z,13.10
2019-01-30T17:05:19.607Z,11.83
2019-01-30T17:07:48.278Z,11.97
2019-01-30T17:10:17.593Z,12.13
2019-01-30T17:12:46.292Z,13.40
2019-01-30T17:15:17.477Z,12.65
2019-01-30T17:17:46.135Z,14.20
2019-01-30T17:20:20.040Z,13.70
2019-01-30T17:22:48.804Z,12.98
2019-01-30T17:25:17.600Z,13.00
2019-01-30T17:27:46.224Z,12.95
2019-01-30T17:30:24.066Z,13.05
2019-01-30T17:32:52.694Z,12.45
2019-01-30T17:35:21.387Z,13.48
2019-01-30T17:37:50.240Z,13.32
2019-01-30T17:40:19.888Z,13.00
2019-01-30T17:42:48.811Z,13.25
2019-01-30T17:45:17.531Z,12.60
2019-01-30T17:47:46.811Z,13.50
2019-01-30T17:50:18.356Z,13.32
2019-01-30T17:52:47.035Z,13.90
2019-01-30T17:55:16.044Z,13.55
2019-01-30T17:57:44.710Z,14.33
2019-01-30T18:00:24.748Z,13.62
2019-01-30T18:02:53.369Z,12.93
2019-01-30T18:05:22.943Z,14.60
2019-01-30T18:07:51.570Z,14.35
2019-01-30T18:10:20.307Z,14.63
2019-01-30T18:12:48.993Z,14.30
2019-01-30T18:15:17.796Z,13.90
2019-01-30T18:17:46.610Z,12.70
2019-01-30T18:20:15.760Z,13.93
2019-01-30T18:22:44.752Z,14.93
2019-01-30T18:25:14.466Z,12.98
2019-01-30T18:27:43.235Z,14.50
2019-01-30T18:30:14.549Z,14.80
2019-01-30T18:32:43.519Z,15.05
2019-01-30T18:35:12.383Z,14.90
2019-01-30T18:37:41.006Z,14.25
2019-01-30T18:40:12.655Z,16.15
2019-01-30T18:42:41.292Z,15.75
2019-01-30T18:45:11.782Z,14.95
2019-01-30T18:47:40.423Z,17.00
2019-01-30T18:50:11.863Z,16.55
2019-01-30T18:52:40.486Z,16.48
2019-01-30T18:55:09.260Z,16.70
2019-01-30T18:57:37.978Z,16.75
2019-01-30T19:00:11.799Z,18.37
2019-01-30T19:02:40.448Z,17.32
2019-01-30T19:05:09.581Z,15.88
2019-01-30T19:07:38.250Z,16.57
2019-01-30T19:10:09.525Z,16.93
2019-01-30T19:12:38.196Z,16.82
2019-01-30T19:15:09.816Z,15.95
2019-01-30T19:17:38.543Z,15.50
2019-01-30T19:20:10.023Z,15.60
2019-01-30T19:22:38.670Z,14.20
2019-01-30T19:25:07.686Z,15.00
2019-01-30T19:27:36.348Z,15.83
2019-01-30T19:30:07.584Z,16.20
2019-01-30T19:32:36.478Z,15.98
2019-01-30T19:35:05.327Z,15.45
2019-01-30T19:37:33.999Z,15.15
2019-01-30T19:40:02.607Z,15.43
2019-01-30T19:42:31.259Z,14.73
2019-01-30T19:44:59.883Z,14.95
2019-01-30T19:47:28.533Z,15.45
2019-01-30T19:49:57.170Z,14.53
2019-01-30T19:52:25.831Z,14.45
2019-01-30T19:54:54.432Z,14.75
2019-01-30T19:57:23.079Z,14.58
2019-01-30T19:59:51.793Z,15.65
2019-01-30T20:02:20.512Z,15.03
2019-01-30T20:04:49.129Z,15.70
2019-01-30T20:07:17.898Z,15.18
2019-01-30T20:09:46.505Z,16.05
2019-01-30T20:12:15.376Z,14.70
2019-01-30T20:14:43.995Z,16.00
2019-01-30T20:17:12.655Z,15.05
2019-01-30T20:19:41.304Z,14.53
2019-01-30T20:22:10.163Z,16.15
2019-01-30T20:24:38.755Z,15.88
2019-01-30T20:27:07.455Z,15.72
2019-01-30T20:29:36.064Z,16.82
2019-01-30T20:32:04.982Z,15.58
2019-01-30T20:34:33.574Z,16.30
2019-01-30T20:37:02.293Z,15.30
2019-01-30T20:39:31.162Z,14.63
2019-01-30T20:41:59.846Z,16.30
2019-01-30T20:44:28.534Z,16.37
2019-01-30T20:46:57.179Z,16.12
2019-01-30T20:49:25.814Z,16.20
2019-01-30T20:51:54.476Z,16.40
2019-01-30T20:54:23.101Z,15.58
2019-01-30T20:56:51.775Z,16.60
2019-01-30T20:59:20.399Z,17.10
2019-01-30T21:01:49.060Z,17.45
2019-01-30T21:04:17.671Z,17.23
2019-01-30T21:06:46.314Z,16.42
2019-01-30T21:09:14.911Z,16.35
2019-01-30T21:11:43.591Z,17.27
2019-01-30T21:14:12.208Z,16.87
2019-01-30T21:16:40.827Z,16.17
2019-01-30T21:19:09.486Z,16.35
2019-01-30T21:21:38.130Z,16.40
2019-01-30T21:24:06.878Z,15.83
2019-01-30T21:26:35.506Z,15.93
2019-01-30T21:29:04.302Z,16.90
2019-01-30T21:31:32.959Z,17.80
2019-01-30T21:34:01.633Z,16.95
2019-01-30T21:36:30.545Z,17.80
2019-01-30T21:38:59.201Z,18.77
2019-01-30T21:41:27.808Z,17.82
2019-01-30T21:43:56.471Z,18.30
2019-01-30T21:46:25.077Z,19.00
2019-01-30T21:48:55.412Z,18.32
2019-01-30T21:51:24.087Z,19.42
2019-01-30T21:53:52.969Z,18.35
2019-01-30T21:56:21.574Z,18.02
2019-01-30T21:58:50.248Z,19.17
2019-01-30T22:01:20.761Z,19.70
2019-01-30T22:03:49.455Z,18.82
2019-01-30T22:06:18.104Z,18.77
2019-01-30T22:08:46.781Z,20.95
2019-01-30T22:11:15.427Z,18.98
2019-01-30T22:13:44.074Z,19.02
2019-01-30T22:16:12.683Z,19.60
2019-01-30T22:18:41.349Z,19.23
2019-01-30T22:21:09.966Z,19.45
2019-01-30T22:23:39.096Z,18.25
2019-01-30T22:26:07.810Z,15.50
2019-01-30T22:28:36.491Z,18.75
2019-01-30T22:31:05.371Z,21.35
2019-01-30T22:33:34.038Z,19.67
2019-01-30T22:36:02.660Z,18.15
2019-01-30T22:38:31.303Z,17.12
2019-01-30T22:40:59.959Z,18.23
2019-01-30T22:43:28.594Z,17.10
2019-01-30T22:45:57.298Z,18.95
2019-01-30T22:48:25.934Z,18.50
2019-01-30T22:50:54.640Z,16.82
2019-01-30T22:53:23.266Z,18.50
2019-01-30T22:55:51.889Z,16.55
2019-01-30T22:58:21.057Z,18.60
2019-01-30T23:01:30.266Z,17.60
2019-01-30T23:04:34.762Z,17.73
2019-01-30T23:07:23.279Z,17.42
2019-01-30T23:10:11.741Z,17.30
2019-01-30T23:12:59.133Z,17.48
2019-01-30T23:15:37.848Z,18.73
2019-01-30T23:18:43.816Z,19.55
2019-01-30T23:21:17.295Z,19.07
2019-01-30T23:24:01.033Z,17.40
2019-01-30T23:26:53.472Z,18.40
2019-01-30T23:30:16.366Z,18.35
2019-01-30T23:33:15.636Z,18.85
2019-01-30T23:35:55.309Z,18.20
2019-01-30T23:38:37.102Z,18.27
2019-01-30T23:41:25.107Z,18.52
2019-01-30T23:44:29.947Z,18.70
2019-01-30T23:47:10.873Z,12.33
2019-01-30T23:50:03.615Z,16.70
2019-01-30T23:52:49.308Z,16.77
2019-01-30T23:55:35.262Z,16.77
2019-01-30T23:58:16.610Z,15.23
